createdAt,value
2023-04-18T00:00:56.283Z,1023.66
2023-04-18T00:01:56.403Z,1023.63
2023-04-18T00:02:56.481Z,1023.70
2023-04-18T00:03:56.366Z,1023.66
2023-04-18T00:04:56.389Z,1023.63
2023-04-18T00:05:56.217Z,1023.64
2023-04-18T00:06:56.207Z,1023.63
2023-04-18T00:07:56.190Z,1023.63
2023-04-18T00:08:56.233Z,1023.62
2023-04-18T00:09:56.191Z,1023.57
2023-04-18T00:10:56.164Z,1023.68
2023-04-18T00:11:56.148Z,1023.65
2023-04-18T00:12:56.141Z,1023.63
2023-04-18T00:13:56.155Z,1023.64
2023-04-18T00:14:56.138Z,1023.64
2023-04-18T00:15:56.103Z,1023.58
2023-04-18T00:16:56.110Z,1023.68
2023-04-18T00:17:56.128Z,1023.64
2023-04-18T00:18:56.098Z,1023.65
2023-04-18T00:19:56.058Z,1023.65
2023-04-18T00:20:56.063Z,1023.67
2023-04-18T00:21:56.079Z,1023.64
2023-04-18T00:22:56.030Z,1023.66
2023-04-18T00:23:56.029Z,1023.60
2023-04-18T00:24:56.021Z,1023.60
2023-04-18T00:25:56.000Z,1023.57
2023-04-18T00:26:56.011Z,1023.63
2023-04-18T00:27:55.972Z,1023.65
2023-04-18T00:28:55.969Z,1023.64
2023-04-18T00:29:55.973Z,1023.63
2023-04-18T00:30:55.977Z,1023.57
2023-04-18T00:31:55.949Z,1023.59
2023-04-18T00:32:55.969Z,1023.70
2023-04-18T00:33:55.943Z,1023.61
2023-04-18T00:34:55.901Z,1023.65
2023-04-18T00:35:55.891Z,1023.60
2023-04-18T00:36:55.877Z,1023.62
2023-04-18T00:37:55.901Z,1023.64
2023-04-18T00:38:55.875Z,1023.62
2023-04-18T00:39:55.859Z,1023.69
2023-04-18T00:40:55.856Z,1023.58
2023-04-18T00:41:55.828Z,1023.61
2023-04-18T00:42:55.841Z,1023.59
2023-04-18T00:43:55.812Z,1023.63
2023-04-18T00:44:55.801Z,1023.62
2023-04-18T00:45:55.853Z,1023.66
2023-04-18T00:46:55.768Z,1023.65
2023-04-18T00:47:55.848Z,1023.66
2023-04-18T00:48:55.745Z,1023.63
2023-04-18T00:49:55.735Z,1023.67
2023-04-18T00:50:55.721Z,1023.68
2023-04-18T00:51:55.720Z,1023.68
2023-04-18T00:52:55.722Z,1023.65
2023-04-18T00:53:55.699Z,1023.68
2023-04-18T00:54:55.716Z,1023.62
2023-04-18T00:55:55.684Z,1023.64
2023-04-18T00:56:55.665Z,1023.64
2023-04-18T00:57:55.670Z,1023.68
2023-04-18T00:58:55.636Z,1023.68
2023-04-18T00:59:55.631Z,1023.68
2023-04-18T01:00:55.622Z,1023.69
2023-04-18T01:01:55.741Z,1023.65
2023-04-18T01:02:56.016Z,1023.71
2023-04-18T01:03:55.737Z,1023.77
2023-04-18T01:04:55.586Z,1023.68
2023-04-18T01:05:55.589Z,1023.68
2023-04-18T01:06:55.551Z,1023.64
2023-04-18T01:07:55.561Z,1023.61
2023-04-18T01:08:55.528Z,1023.63
2023-04-18T01:09:55.538Z,1023.63
2023-04-18T01:10:55.509Z,1023.57
2023-04-18T01:11:55.507Z,1023.61
2023-04-18T01:12:55.482Z,1023.61
2023-04-18T01:13:55.501Z,1023.60
2023-04-18T01:14:55.459Z,1023.69
2023-04-18T01:15:55.462Z,1023.65
2023-04-18T01:16:55.434Z,1023.67
2023-04-18T01:17:55.499Z,1023.72
2023-04-18T01:18:55.420Z,1023.71
2023-04-18T01:19:55.421Z,1023.71
2023-04-18T01:20:55.395Z,1023.72
2023-04-18T01:21:55.385Z,1023.70
2023-04-18T01:22:55.368Z,1023.67
2023-04-18T01:23:55.397Z,1023.73
2023-04-18T01:24:55.353Z,1023.72
2023-04-18T01:25:55.352Z,1023.71
2023-04-18T01:26:55.332Z,1023.72
2023-04-18T01:27:55.317Z,1023.74
2023-04-18T01:28:55.321Z,1023.70
2023-04-18T01:29:55.317Z,1023.65
2023-04-18T01:30:55.299Z,1023.74
2023-04-18T01:31:55.268Z,1023.72
2023-04-18T01:32:55.296Z,1023.67
2023-04-18T01:33:55.270Z,1023.67
2023-04-18T01:34:55.256Z,1023.70
2023-04-18T01:35:55.232Z,1023.65
2023-04-18T01:36:55.216Z,1023.63
2023-04-18T01:37:55.214Z,1023.69
2023-04-18T01:38:55.203Z,1023.63
2023-04-18T01:39:55.204Z,1023.69
2023-04-18T01:40:55.168Z,1023.68
2023-04-18T01:41:55.175Z,1023.66
2023-04-18T01:42:55.160Z,1023.69
2023-04-18T01:43:55.163Z,1023.71
2023-04-18T01:44:55.125Z,1023.72
2023-04-18T01:45:55.126Z,1023.63
2023-04-18T01:46:55.134Z,1023.69
2023-04-18T01:47:55.208Z,1023.65
2023-04-18T01:48:55.105Z,1023.65
2023-04-18T01:49:55.097Z,1023.64
2023-04-18T01:50:55.094Z,1023.66
2023-04-18T01:51:55.058Z,1023.68
2023-04-18T01:52:55.041Z,1023.67
2023-04-18T01:53:55.055Z,1023.65
2023-04-18T01:54:55.015Z,1023.64
2023-04-18T01:55:55.008Z,1023.68
2023-04-18T01:56:55.000Z,1023.64
2023-04-18T01:57:54.990Z,1023.64
2023-04-18T01:58:55.000Z,1023.65
2023-04-18T01:59:54.966Z,1023.64
2023-04-18T02:00:54.977Z,1023.60
2023-04-18T02:01:55.051Z,1023.62
2023-04-18T02:02:55.023Z,1023.64
2023-04-18T02:03:55.138Z,1023.64
2023-04-18T02:04:54.938Z,1023.61
2023-04-18T02:05:54.922Z,1023.57
2023-04-18T02:06:54.915Z,1023.55
2023-04-18T02:07:54.879Z,1023.54
2023-04-18T02:08:54.855Z,1023.56
2023-04-18T02:09:54.871Z,1023.53
2023-04-18T02:10:54.835Z,1023.59
2023-04-18T02:11:54.866Z,1023.58
2023-04-18T02:12:54.830Z,1023.57
2023-04-18T02:13:54.815Z,1023.56
2023-04-18T02:14:54.798Z,1023.54
2023-04-18T02:15:54.788Z,1023.54
2023-04-18T02:16:54.835Z,1023.56
2023-04-18T02:17:54.833Z,1023.55
2023-04-18T02:18:54.752Z,1023.58
2023-04-18T02:19:54.792Z,1023.55
2023-04-18T02:20:54.740Z,1023.59
2023-04-18T02:21:54.740Z,1023.50
2023-04-18T02:22:54.720Z,1023.55
2023-04-18T02:23:54.713Z,1023.56
2023-04-18T02:24:54.705Z,1023.53
2023-04-18T02:25:54.677Z,1023.56
2023-04-18T02:26:54.664Z,1023.55
2023-04-18T02:27:54.655Z,1023.59
2023-04-18T02:28:54.649Z,1023.54
2023-04-18T02:29:54.668Z,1023.59
2023-04-18T02:30:54.621Z,1023.52
2023-04-18T02:31:54.654Z,1023.56
2023-04-18T02:32:54.632Z,1023.51
2023-04-18T02:33:54.588Z,1023.55
2023-04-18T02:34:54.616Z,1023.57
2023-04-18T02:35:54.577Z,1023.59
2023-04-18T02:36:54.568Z,1023.59
2023-04-18T02:37:54.574Z,1023.61
2023-04-18T02:38:54.536Z,1023.56
2023-04-18T02:39:54.528Z,1023.57
2023-04-18T02:40:54.535Z,1023.59
2023-04-18T02:41:54.501Z,1023.61
2023-04-18T02:42:54.491Z,1023.59
2023-04-18T02:43:54.481Z,1023.62
2023-04-18T02:44:54.465Z,1023.57
2023-04-18T02:45:54.524Z,1023.54
2023-04-18T02:46:54.440Z,1023.58
2023-04-18T02:47:56.520Z,1023.57
2023-04-18T02:48:54.428Z,1023.62
2023-04-18T02:49:54.415Z,1023.63
2023-04-18T02:50:54.418Z,1023.61
2023-04-18T02:51:54.388Z,1023.63
2023-04-18T02:52:54.380Z,1023.61
2023-04-18T02:53:54.401Z,1023.59
2023-04-18T02:54:54.354Z,1023.59
2023-04-18T02:55:54.368Z,1023.59
2023-04-18T02:56:54.342Z,1023.56
2023-04-18T02:57:54.323Z,1023.60
2023-04-18T02:58:54.311Z,1023.62
2023-04-18T02:59:54.322Z,1023.59
2023-04-18T03:00:54.346Z,1023.62
2023-04-18T03:01:54.292Z,1023.64
2023-04-18T03:02:54.403Z,1023.64
2023-04-18T03:03:54.270Z,1023.61
2023-04-18T03:04:54.288Z,1023.65
2023-04-18T03:05:54.250Z,1023.63
2023-04-18T03:06:54.225Z,1023.71
2023-04-18T03:07:54.216Z,1023.67
2023-04-18T03:08:54.201Z,1023.66
2023-04-18T03:09:54.236Z,1023.72
2023-04-18T03:10:56.184Z,1023.67
2023-04-18T03:11:54.171Z,1023.67
2023-04-18T03:12:54.161Z,1023.77
2023-04-18T03:13:54.169Z,1023.74
2023-04-18T03:14:54.158Z,1023.77
2023-04-18T03:15:54.148Z,1023.73
2023-04-18T03:16:55.411Z,1023.68
2023-04-18T03:17:54.162Z,1023.77
2023-04-18T03:18:54.094Z,1023.82
2023-04-18T03:19:54.106Z,1023.76
2023-04-18T03:20:54.075Z,1023.73
2023-04-18T03:21:54.064Z,1023.71
2023-04-18T03:22:54.054Z,1023.77
2023-04-18T03:23:54.042Z,1023.78
2023-04-18T03:24:54.054Z,1023.78
2023-04-18T03:25:54.040Z,1023.82
2023-04-18T03:26:54.012Z,1023.76
2023-04-18T03:27:53.995Z,1023.81
2023-04-18T03:28:53.984Z,1023.80
2023-04-18T03:29:53.999Z,1023.81
2023-04-18T03:30:54.015Z,1023.80
2023-04-18T03:31:53.967Z,1023.79
2023-04-18T03:32:54.000Z,1023.84
2023-04-18T03:33:53.927Z,1023.85
2023-04-18T03:34:53.941Z,1023.81
2023-04-18T03:35:53.913Z,1023.81
2023-04-18T03:36:53.914Z,1023.81
2023-04-18T03:37:53.886Z,1023.77
2023-04-18T03:38:53.880Z,1023.76
2023-04-18T03:39:53.893Z,1023.78
2023-04-18T03:40:53.863Z,1023.78
2023-04-18T03:41:53.966Z,1023.80
2023-04-18T03:42:53.828Z,1023.79
2023-04-18T03:43:53.831Z,1023.80
2023-04-18T03:44:53.835Z,1023.81
2023-04-18T03:45:53.876Z,1023.84
2023-04-18T03:46:53.795Z,1023.81
2023-04-18T03:47:53.807Z,1023.83
2023-04-18T03:48:53.766Z,1023.87
2023-04-18T03:49:53.758Z,1023.83
2023-04-18T03:50:53.768Z,1023.78
2023-04-18T03:51:53.740Z,1023.86
2023-04-18T03:52:53.727Z,1023.89
2023-04-18T03:53:53.713Z,1023.90
2023-04-18T03:54:53.703Z,1023.92
2023-04-18T03:55:53.720Z,1023.89
2023-04-18T03:56:53.684Z,1023.90
2023-04-18T03:57:53.704Z,1023.88
2023-04-18T03:58:53.662Z,1023.91
2023-04-18T03:59:53.662Z,1023.95
2023-04-18T04:00:53.676Z,1023.96
2023-04-18T04:01:53.773Z,1023.90
2023-04-18T04:02:53.801Z,1023.91
2023-04-18T04:03:53.772Z,1023.88
2023-04-18T04:04:53.647Z,1023.89
2023-04-18T04:05:53.596Z,1023.92
2023-04-18T04:06:53.575Z,1023.88
2023-04-18T04:07:53.568Z,1023.87
2023-04-18T04:08:53.589Z,1023.89
2023-04-18T04:09:53.548Z,1023.90
2023-04-18T04:10:53.531Z,1023.87
2023-04-18T04:11:53.553Z,1023.89
2023-04-18T04:12:53.504Z,1023.93
2023-04-18T04:13:53.524Z,1023.90
2023-04-18T04:14:53.485Z,1023.96
2023-04-18T04:15:53.529Z,1023.88
2023-04-18T04:16:53.533Z,1023.98
2023-04-18T04:17:53.602Z,1023.89
2023-04-18T04:18:53.442Z,1023.88
2023-04-18T04:19:53.448Z,1023.97
2023-04-18T04:20:53.449Z,1023.97
2023-04-18T04:21:53.418Z,1023.94
2023-04-18T04:22:53.399Z,1024.01
2023-04-18T04:23:53.399Z,1024.01
2023-04-18T04:24:53.407Z,1024.01
2023-04-18T04:25:53.367Z,1023.98
2023-04-18T04:26:53.385Z,1024.03
2023-04-18T04:27:53.347Z,1023.99
2023-04-18T04:28:53.335Z,1024.01
2023-04-18T04:29:53.383Z,1024.04
2023-04-18T04:30:53.342Z,1024.01
2023-04-18T04:31:53.368Z,1024.00
2023-04-18T04:32:53.317Z,1024.02
2023-04-18T04:33:53.279Z,1024.04
2023-04-18T04:34:53.262Z,1024.10
2023-04-18T04:35:53.261Z,1024.06
2023-04-18T04:36:53.266Z,1024.07
2023-04-18T04:37:53.254Z,1024.04
2023-04-18T04:38:53.218Z,1024.09
2023-04-18T04:39:53.219Z,1024.06
2023-04-18T04:40:53.213Z,1024.02
2023-04-18T04:41:53.224Z,1024.01
2023-04-18T04:42:53.171Z,1024.04
2023-04-18T04:43:53.185Z,1024.00
2023-04-18T04:44:53.170Z,1024.05
2023-04-18T04:45:53.288Z,1024.07
2023-04-18T04:46:53.164Z,1024.09
2023-04-18T04:47:53.290Z,1024.08
2023-04-18T04:48:53.122Z,1024.05
2023-04-18T04:49:53.110Z,1024.06
2023-04-18T04:50:53.087Z,1024.11
2023-04-18T04:51:53.096Z,1024.04
2023-04-18T04:52:53.068Z,1024.11
2023-04-18T04:53:53.092Z,1024.09
2023-04-18T04:54:53.043Z,1024.14
2023-04-18T04:55:53.041Z,1024.15
2023-04-18T04:56:53.035Z,1024.13
2023-04-18T04:57:53.010Z,1024.12
2023-04-18T04:58:53.073Z,1024.17
2023-04-18T04:59:52.987Z,1024.15
2023-04-18T05:00:53.047Z,1024.12
2023-04-18T05:01:53.250Z,1024.14
2023-04-18T05:02:53.109Z,1024.13
2023-04-18T05:03:53.041Z,1024.17
2023-04-18T05:04:52.942Z,1024.13
2023-04-18T05:05:52.932Z,1024.18
2023-04-18T05:06:52.945Z,1024.19
2023-04-18T05:07:52.904Z,1024.13
2023-04-18T05:08:52.916Z,1024.13
2023-04-18T05:09:52.889Z,1024.18
2023-04-18T05:10:52.871Z,1024.14
2023-04-18T05:11:52.890Z,1024.13
2023-04-18T05:12:52.871Z,1024.12
2023-04-18T05:13:52.848Z,1024.10
2023-04-18T05:14:52.838Z,1024.11
2023-04-18T05:15:52.843Z,1024.20
2023-04-18T05:16:52.871Z,1024.20
2023-04-18T05:17:52.904Z,1024.21
2023-04-18T05:18:52.800Z,1024.22
2023-04-18T05:19:52.801Z,1024.19
2023-04-18T05:20:52.768Z,1024.18
2023-04-18T05:21:52.747Z,1024.23
2023-04-18T05:22:52.752Z,1024.19
2023-04-18T05:23:52.726Z,1024.21
2023-04-18T05:24:52.769Z,1024.22
2023-04-18T05:25:52.703Z,1024.26
2023-04-18T05:26:52.698Z,1024.24
2023-04-18T05:27:52.715Z,1024.18
2023-04-18T05:28:52.681Z,1024.17
2023-04-18T05:29:52.665Z,1024.19
2023-04-18T05:30:52.841Z,1024.20
2023-04-18T05:31:52.654Z,1024.23
2023-04-18T05:32:52.709Z,1024.25
2023-04-18T05:33:52.648Z,1024.27
2023-04-18T05:34:52.645Z,1024.25
2023-04-18T05:35:52.601Z,1024.22
2023-04-18T05:36:52.595Z,1024.30
2023-04-18T05:37:52.624Z,1024.29
2023-04-18T05:38:52.574Z,1024.26
2023-04-18T05:39:52.564Z,1024.29
2023-04-18T05:40:52.569Z,1024.29
2023-04-18T05:41:52.554Z,1024.29
2023-04-18T05:42:52.548Z,1024.27
2023-04-18T05:44:04.279Z,1024.23
2023-04-18T05:44:53.508Z,1024.25
2023-04-18T05:45:52.830Z,1024.27
2023-04-18T05:46:52.484Z,1024.29
2023-04-18T05:47:52.508Z,1024.23
2023-04-18T05:48:52.465Z,1024.30
2023-04-18T05:49:52.477Z,1024.27
2023-04-18T05:50:52.468Z,1024.31
2023-04-18T05:51:52.428Z,1024.26
2023-04-18T05:52:52.432Z,1024.31
2023-04-18T05:53:52.420Z,1024.28
2023-04-18T05:54:52.401Z,1024.31
2023-04-18T05:55:52.409Z,1024.34
2023-04-18T05:56:52.393Z,1024.31
2023-04-18T05:57:52.384Z,1024.30
2023-04-18T05:58:52.359Z,1024.32
2023-04-18T05:59:52.347Z,1024.35
2023-04-18T06:00:52.358Z,1024.28
2023-04-18T06:01:52.412Z,1024.31
2023-04-18T06:02:52.424Z,1024.31
2023-04-18T06:03:52.543Z,1024.32
2023-04-18T06:04:52.480Z,1024.30
2023-04-18T06:05:52.443Z,1024.31
2023-04-18T06:06:52.280Z,1024.30
2023-04-18T06:07:52.262Z,1024.31
2023-04-18T06:08:52.280Z,1024.35
2023-04-18T06:09:52.231Z,1024.28
2023-04-18T06:10:52.221Z,1024.32
2023-04-18T06:11:52.234Z,1024.34
2023-04-18T06:12:52.210Z,1024.38
2023-04-18T06:13:52.210Z,1024.33
2023-04-18T06:14:52.185Z,1024.34
2023-04-18T06:15:52.179Z,1024.32
2023-04-18T06:16:52.175Z,1024.39
2023-04-18T06:17:52.259Z,1024.33
2023-04-18T06:18:52.151Z,1024.38
2023-04-18T06:19:52.129Z,1024.34
2023-04-18T06:20:52.116Z,1024.38
2023-04-18T06:21:52.155Z,1024.37
2023-04-18T06:22:52.105Z,1024.38
2023-04-18T06:23:52.081Z,1024.35
2023-04-18T06:24:52.103Z,1024.40
2023-04-18T06:25:52.063Z,1024.44
2023-04-18T06:26:52.093Z,1024.47
2023-04-18T06:27:52.043Z,1024.44
2023-04-18T06:28:52.030Z,1024.47
2023-04-18T06:29:52.019Z,1024.47
2023-04-18T06:30:52.025Z,1024.45
2023-04-18T06:31:52.022Z,1024.45
2023-04-18T06:32:52.056Z,1024.45
2023-04-18T06:33:51.983Z,1024.47
2023-04-18T06:34:51.996Z,1024.47
2023-04-18T06:35:51.954Z,1024.47
2023-04-18T06:36:51.947Z,1024.47
2023-04-18T06:37:51.956Z,1024.48
2023-04-18T06:38:51.949Z,1024.58
2023-04-18T06:39:51.916Z,1024.45
2023-04-18T06:40:51.901Z,1024.44
2023-04-18T06:41:51.900Z,1024.44
2023-04-18T06:42:51.892Z,1024.37
2023-04-18T06:44:02.738Z,1024.43
2023-04-18T06:44:52.875Z,1024.41
2023-04-18T06:45:51.887Z,1024.39
2023-04-18T06:46:51.846Z,1024.36
2023-04-18T06:47:51.832Z,1024.40
2023-04-18T06:48:51.836Z,1024.45
2023-04-18T06:49:51.800Z,1024.46
2023-04-18T06:50:51.798Z,1024.48
2023-04-18T06:51:51.788Z,1024.53
2023-04-18T06:52:51.783Z,1024.47
2023-04-18T06:53:51.832Z,1024.58
2023-04-18T06:54:51.765Z,1024.52
2023-04-18T06:55:51.734Z,1024.54
2023-04-18T06:56:51.744Z,1024.57
2023-04-18T06:57:51.710Z,1024.57
2023-04-18T06:58:51.705Z,1024.51
2023-04-18T06:59:51.717Z,1024.59
2023-04-18T07:00:51.776Z,1024.57
2023-04-18T07:01:51.679Z,1024.56
2023-04-18T07:02:51.876Z,1024.55
2023-04-18T07:03:51.713Z,1024.56
2023-04-18T07:04:51.689Z,1024.64
2023-04-18T07:05:51.659Z,1024.62
2023-04-18T07:06:51.641Z,1024.61
2023-04-18T07:07:51.613Z,1024.58
2023-04-18T07:08:53.315Z,1024.58
2023-04-18T07:09:51.766Z,1024.56
2023-04-18T07:10:51.578Z,1024.59
2023-04-18T07:11:51.562Z,1024.59
2023-04-18T07:12:51.557Z,1024.59
2023-04-18T07:13:51.542Z,1024.58
2023-04-18T07:14:51.575Z,1024.57
2023-04-18T07:15:51.545Z,1024.54
2023-04-18T07:16:51.630Z,1024.51
2023-04-18T07:17:51.555Z,1024.49
2023-04-18T07:18:51.492Z,1024.52
2023-04-18T07:19:51.473Z,1024.54
2023-04-18T07:20:51.492Z,1024.58
2023-04-18T07:21:51.456Z,1024.54
2023-04-18T07:22:51.460Z,1024.53
2023-04-18T07:23:51.431Z,1024.52
2023-04-18T07:24:51.429Z,1024.61
2023-04-18T07:25:51.635Z,1024.57
2023-04-18T07:26:53.142Z,1024.59
2023-04-18T07:27:51.397Z,1024.49
2023-04-18T07:28:51.392Z,1024.48
2023-04-18T07:29:51.421Z,1024.50
2023-04-18T07:30:51.428Z,1024.52
2023-04-18T07:31:51.342Z,1024.53
2023-04-18T07:32:51.400Z,1024.56
2023-04-18T07:33:51.321Z,1024.51
2023-04-18T07:34:51.331Z,1024.54
2023-04-18T07:35:51.321Z,1024.56
2023-04-18T07:36:51.291Z,1024.58
2023-04-18T07:37:51.288Z,1024.49
2023-04-18T07:38:51.266Z,1024.56
2023-04-18T07:39:51.257Z,1024.52
2023-04-18T07:40:51.263Z,1024.53
2023-04-18T07:41:51.437Z,1024.62
2023-04-18T07:42:51.230Z,1024.57
2023-04-18T07:43:51.225Z,1024.63
2023-04-18T07:44:51.221Z,1024.57
2023-04-18T07:45:51.244Z,1024.52
2023-04-18T07:46:51.191Z,1024.57
2023-04-18T07:47:51.241Z,1024.59
2023-04-18T07:48:51.170Z,1024.60
2023-04-18T07:49:51.147Z,1024.62
2023-04-18T07:50:51.146Z,1024.55
2023-04-18T07:51:51.163Z,1024.58
2023-04-18T07:52:51.124Z,1024.67
2023-04-18T07:53:51.111Z,1024.63
2023-04-18T07:54:51.105Z,1024.58
2023-04-18T07:55:51.143Z,1024.64
2023-04-18T07:56:51.079Z,1024.65
2023-04-18T07:57:51.089Z,1024.62
2023-04-18T07:58:51.057Z,1024.60
2023-04-18T07:59:51.048Z,1024.61
2023-04-18T08:00:51.042Z,1024.57
2023-04-18T08:01:51.042Z,1024.57
2023-04-18T08:02:51.193Z,1024.63
2023-04-18T08:03:51.121Z,1024.62
2023-04-18T08:04:51.160Z,1024.66
2023-04-18T08:05:50.978Z,1024.64
2023-04-18T08:06:51.002Z,1024.69
2023-04-18T08:07:50.961Z,1024.61
2023-04-18T08:08:50.959Z,1024.66
2023-04-18T08:09:50.933Z,1024.64
2023-04-18T08:10:50.929Z,1024.65
2023-04-18T08:11:50.939Z,1024.66
2023-04-18T08:12:50.906Z,1024.63
2023-04-18T08:13:50.930Z,1024.64
2023-04-18T08:14:50.888Z,1024.65
2023-04-18T08:15:50.903Z,1024.63
2023-04-18T08:16:50.894Z,1024.64
2023-04-18T08:17:50.888Z,1024.69
2023-04-18T08:18:50.845Z,1024.67
2023-04-18T08:19:50.828Z,1024.61
2023-04-18T08:20:50.823Z,1024.68
2023-04-18T08:21:50.821Z,1024.70
2023-04-18T08:23:05.654Z,1024.67
2023-04-18T08:23:50.780Z,1024.70
2023-04-18T08:25:03.692Z,1024.70
2023-04-18T08:25:51.755Z,1024.70
2023-04-18T08:26:50.785Z,1024.74
2023-04-18T08:27:50.739Z,1024.66
2023-04-18T08:28:50.734Z,1024.69
2023-04-18T08:29:50.734Z,1024.69
2023-04-18T08:30:50.715Z,1024.69
2023-04-18T08:31:50.774Z,1024.74
2023-04-18T08:32:50.751Z,1024.70
2023-04-18T08:33:50.684Z,1024.71
2023-04-18T08:34:50.666Z,1024.69
2023-04-18T08:35:50.672Z,1024.70
2023-04-18T08:36:50.643Z,1024.68
2023-04-18T08:37:50.642Z,1024.71
2023-04-18T08:38:50.621Z,1024.73
2023-04-18T08:39:50.601Z,1024.73
2023-04-18T08:40:50.636Z,1024.75
2023-04-18T08:41:50.595Z,1024.70
2023-04-18T08:42:50.575Z,1024.77
2023-04-18T08:43:50.565Z,1024.69
2023-04-18T08:44:50.562Z,1024.75
2023-04-18T08:45:50.636Z,1024.76
2023-04-18T08:46:50.589Z,1024.78
2023-04-18T08:47:50.552Z,1024.76
2023-04-18T08:48:50.511Z,1024.78
2023-04-18T08:49:50.495Z,1024.80
2023-04-18T08:50:50.504Z,1024.75
2023-04-18T08:51:50.472Z,1024.75
2023-04-18T08:52:50.473Z,1024.76
2023-04-18T08:53:50.453Z,1024.74
2023-04-18T08:54:50.444Z,1024.81
2023-04-18T08:55:50.465Z,1024.79
2023-04-18T08:56:50.422Z,1024.76
2023-04-18T08:57:50.449Z,1024.78
2023-04-18T08:58:50.396Z,1024.75
2023-04-18T08:59:51.134Z,1024.85
2023-04-18T09:00:50.412Z,1024.83
2023-04-18T09:01:50.411Z,1024.84
2023-04-18T09:02:50.514Z,1024.88
2023-04-18T09:03:50.377Z,1024.83
2023-04-18T09:04:50.354Z,1024.81
2023-04-18T09:05:50.323Z,1024.75
2023-04-18T09:06:50.306Z,1024.74
2023-04-18T09:07:50.297Z,1024.74
2023-04-18T09:08:50.316Z,1024.70
2023-04-18T09:09:50.300Z,1024.72
2023-04-18T09:10:50.261Z,1024.76
2023-04-18T09:11:50.256Z,1024.74
2023-04-18T09:12:50.713Z,1024.77
2023-04-18T09:13:50.228Z,1024.71
2023-04-18T09:14:50.241Z,1024.69
2023-04-18T09:15:50.212Z,1024.73
2023-04-18T09:16:50.253Z,1024.74
2023-04-18T09:17:50.343Z,1024.75
2023-04-18T09:18:50.213Z,1024.74
2023-04-18T09:19:50.167Z,1024.73
2023-04-18T09:20:50.156Z,1024.79
2023-04-18T09:21:50.146Z,1024.79
2023-04-18T09:22:50.138Z,1024.76
2023-04-18T09:23:50.137Z,1024.74
2023-04-18T09:24:50.133Z,1024.73
2023-04-18T09:25:50.124Z,1024.77
2023-04-18T09:26:50.117Z,1024.72
2023-04-18T09:27:50.082Z,1024.76
2023-04-18T09:28:51.593Z,1024.75
2023-04-18T09:29:50.083Z,1024.68
2023-04-18T09:30:50.114Z,1024.67
2023-04-18T09:31:50.054Z,1024.66
2023-04-18T09:32:50.064Z,1024.72
2023-04-18T09:33:50.048Z,1024.74
2023-04-18T09:34:50.028Z,1024.76
2023-04-18T09:35:49.997Z,1024.71
2023-04-18T09:36:50.026Z,1024.74
2023-04-18T09:37:49.978Z,1024.74
2023-04-18T09:38:49.968Z,1024.68
2023-04-18T09:39:49.990Z,1024.73
2023-04-18T09:40:49.944Z,1024.70
2023-04-18T09:41:49.961Z,1024.70
2023-04-18T09:42:49.924Z,1024.68
2023-04-18T09:43:49.933Z,1024.66
2023-04-18T09:44:49.898Z,1024.73
2023-04-18T09:45:49.984Z,1024.69
2023-04-18T09:46:49.968Z,1024.64
2023-04-18T09:47:49.876Z,1024.71
2023-04-18T09:48:49.857Z,1024.72
2023-04-18T09:49:50.015Z,1024.66
2023-04-18T09:50:49.858Z,1024.72
2023-04-18T09:51:49.824Z,1024.71
2023-04-18T09:52:49.807Z,1024.72
2023-04-18T09:53:49.796Z,1024.75
2023-04-18T09:54:49.921Z,1024.72
2023-04-18T09:55:49.799Z,1024.71
2023-04-18T09:56:49.759Z,1024.75
2023-04-18T09:57:49.763Z,1024.76
2023-04-18T09:58:49.745Z,1024.80
2023-04-18T09:59:49.762Z,1024.71
2023-04-18T10:00:49.755Z,1024.70
2023-04-18T10:01:49.760Z,1024.68
2023-04-18T10:02:49.810Z,1024.66
2023-04-18T10:03:49.793Z,1024.69
2023-04-18T10:04:49.811Z,1024.66
2023-04-18T10:05:49.843Z,1024.63
2023-04-18T10:06:49.659Z,1024.71
2023-04-18T10:07:49.661Z,1024.67
2023-04-18T10:08:49.647Z,1024.68
2023-04-18T10:09:49.649Z,1024.68
2023-04-18T10:10:49.646Z,1024.68
2023-04-18T10:11:49.603Z,1024.70
2023-04-18T10:12:49.594Z,1024.68
2023-04-18T10:13:49.603Z,1024.75
2023-04-18T10:14:49.568Z,1024.72
2023-04-18T10:15:50.498Z,1024.63
2023-04-18T10:16:50.608Z,1024.64
2023-04-18T10:18:02.658Z,1024.67
2023-04-18T10:18:50.529Z,1024.59
2023-04-18T10:19:49.541Z,1024.64
2023-04-18T10:20:49.501Z,1024.58
2023-04-18T10:21:49.522Z,1024.66
2023-04-18T10:22:49.493Z,1024.68
2023-04-18T10:23:49.498Z,1024.63
2023-04-18T10:24:49.484Z,1024.60
2023-04-18T10:25:49.465Z,1024.58
2023-04-18T10:26:49.434Z,1024.54
2023-04-18T10:27:49.432Z,1024.61
2023-04-18T10:28:49.435Z,1024.57
2023-04-18T10:29:49.406Z,1024.63
2023-04-18T10:30:49.415Z,1024.60
2023-04-18T10:31:49.395Z,1024.57
2023-04-18T10:32:49.441Z,1024.57
2023-04-18T10:34:49.379Z,1024.56
2023-04-18T10:35:49.371Z,1024.55
2023-04-18T10:36:49.327Z,1024.51
2023-04-18T10:37:49.425Z,1024.54
2023-04-18T10:38:49.308Z,1024.54
2023-04-18T10:39:49.297Z,1024.51
2023-04-18T10:40:49.284Z,1024.53
2023-04-18T10:41:50.507Z,1024.59
2023-04-18T10:42:49.261Z,1024.59
2023-04-18T10:43:49.251Z,1024.59
2023-04-18T10:44:49.244Z,1024.54
2023-04-18T10:45:49.236Z,1024.48
2023-04-18T10:46:49.256Z,1024.54
2023-04-18T10:47:49.268Z,1024.57
2023-04-18T10:48:49.199Z,1024.49
2023-04-18T10:49:49.195Z,1024.54
2023-04-18T10:50:49.210Z,1024.49
2023-04-18T10:51:49.189Z,1024.46
2023-04-18T10:52:49.151Z,1024.45
2023-04-18T10:53:49.178Z,1024.42
2023-04-18T10:54:49.130Z,1024.49
2023-04-18T10:55:49.131Z,1024.47
2023-04-18T10:56:49.140Z,1024.54
2023-04-18T10:57:49.101Z,1024.55
2023-04-18T10:58:49.089Z,1024.52
2023-04-18T10:59:49.081Z,1024.52
2023-04-18T11:00:49.087Z,1024.58
2023-04-18T11:01:49.132Z,1024.55
2023-04-18T11:02:49.315Z,1024.57
2023-04-18T11:03:49.112Z,1024.55
2023-04-18T11:04:49.055Z,1024.51
2023-04-18T11:05:49.014Z,1024.58
2023-04-18T11:06:49.036Z,1024.55
2023-04-18T11:07:49.065Z,1024.53
2023-04-18T11:08:48.983Z,1024.51
2023-04-18T11:09:49.148Z,1024.48
2023-04-18T11:10:48.967Z,1024.53
2023-04-18T11:11:48.958Z,1024.49
2023-04-18T11:12:48.941Z,1024.54
2023-04-18T11:13:48.948Z,1024.50
2023-04-18T11:14:48.942Z,1024.55
2023-04-18T11:15:48.922Z,1024.49
2023-04-18T11:16:48.910Z,1024.52
2023-04-18T11:17:48.917Z,1024.51
2023-04-18T11:18:48.882Z,1024.48
2023-04-18T11:19:48.902Z,1024.44
2023-04-18T11:20:48.856Z,1024.44
2023-04-18T11:21:48.851Z,1024.45
2023-04-18T11:22:48.854Z,1024.52
2023-04-18T11:23:48.878Z,1024.46
2023-04-18T11:24:48.814Z,1024.48
2023-04-18T11:25:48.850Z,1024.48
2023-04-18T11:26:48.789Z,1024.55
2023-04-18T11:27:48.804Z,1024.52
2023-04-18T11:28:48.797Z,1024.47
2023-04-18T11:29:48.766Z,1024.46
2023-04-18T11:30:48.751Z,1024.43
2023-04-18T11:31:48.785Z,1024.45
2023-04-18T11:32:48.846Z,1024.47
2023-04-18T11:33:48.743Z,1024.44
2023-04-18T11:34:48.717Z,1024.43
2023-04-18T11:35:48.690Z,1024.49
2023-04-18T11:36:48.696Z,1024.43
2023-04-18T11:37:48.684Z,1024.45
2023-04-18T11:38:48.678Z,1024.40
2023-04-18T11:39:48.647Z,1024.42
2023-04-18T11:40:48.686Z,1024.39
2023-04-18T11:41:48.669Z,1024.43
2023-04-18T11:42:48.616Z,1024.43
2023-04-18T11:43:48.645Z,1024.40
2023-04-18T11:44:48.593Z,1024.47
2023-04-18T11:45:48.594Z,1024.44
2023-04-18T11:46:48.569Z,1024.40
2023-04-18T11:47:48.585Z,1024.40
2023-04-18T11:48:48.545Z,1024.43
2023-04-18T11:49:48.562Z,1024.35
2023-04-18T11:50:48.536Z,1024.38
2023-04-18T11:51:48.516Z,1024.37
2023-04-18T11:52:48.500Z,1024.38
2023-04-18T11:53:48.487Z,1024.39
2023-04-18T11:54:48.501Z,1024.36
2023-04-18T11:55:48.472Z,1024.37
2023-04-18T11:56:48.470Z,1024.37
2023-04-18T11:57:48.475Z,1024.37
2023-04-18T11:58:48.471Z,1024.35
2023-04-18T11:59:48.431Z,1024.37
2023-04-18T12:00:48.414Z,1024.33
2023-04-18T12:01:48.405Z,1024.41
2023-04-18T12:02:48.534Z,1024.37
2023-04-18T12:03:48.547Z,1024.35
2023-04-18T12:04:48.592Z,1024.38
2023-04-18T12:05:48.730Z,1024.35
2023-04-18T12:06:48.354Z,1024.30